<?xml version="1.0" encoding="UTF-8" standalone="no" ?>
<gpx xmlns="http://www.topografix.com/GPX/1/1" xmlns:xsi="http://www.w3.org/2001/XMLSchema-instance" xsi:schemaLocation="http://www.topografix.com/GPX/1/1 http://www.topografix.com/GPX/1/1/gpx.xsd" version="1.1" creator="VisuGPX - https://www.visugpx.com">
  <metadata>
    <name>Petite boucle du Granzon</name>
    <desc><![CDATA[La petite boucle du Granzon de Banne magnifique mais à pratiquer par temps sec.]]></desc>
  </metadata>
  <trk>
    <name><![CDATA[Petite boucle du ruisseau du Granzon]]></name>
    <extensions>
      <line xmlns="http://www.topografix.com/GPX/gpx_style/0/2">
        <color>0000FF</color>
        <width>4</width>
      </line>
    </extensions>
    <trkseg>
      <trkpt lat="44.3727" lon="4.16692">
        <ele>149</ele>
        <time>2025-10-19T09:24:54.000Z</time>
      </trkpt>
      <trkpt lat="44.37276" lon="4.16099">
        <ele>164</ele>
        <time>2025-10-19T09:35:33.000Z</time>
      </trkpt>
      <trkpt lat="44.37376" lon="4.16129">
        <ele>157</ele>
        <time>2025-10-19T09:37:30.000Z</time>
      </trkpt>
      <trkpt lat="44.37422" lon="4.16149">
        <ele>155</ele>
        <time>2025-10-19T09:38:25.000Z</time>
      </trkpt>
      <trkpt lat="44.37457" lon="4.16198">
        <ele>154</ele>
        <time>2025-10-19T09:39:22.000Z</time>
      </trkpt>
      <trkpt lat="44.37492" lon="4.1623">
        <ele>153</ele>
        <time>2025-10-19T09:40:10.000Z</time>
      </trkpt>
      <trkpt lat="44.37529" lon="4.16245">
        <ele>153</ele>
        <time>2025-10-19T09:40:54.000Z</time>
      </trkpt>
      <trkpt lat="44.37566" lon="4.16258">
        <ele>152</ele>
        <time>2025-10-19T09:41:37.000Z</time>
      </trkpt>
      <trkpt lat="44.37581" lon="4.16271">
        <ele>151</ele>
        <time>2025-10-19T09:41:57.000Z</time>
      </trkpt>
      <trkpt lat="44.37603" lon="4.16273">
        <ele>151</ele>
        <time>2025-10-19T09:42:22.000Z</time>
      </trkpt>
      <trkpt lat="44.37624" lon="4.16262">
        <ele>152</ele>
        <time>2025-10-19T09:42:58.000Z</time>
      </trkpt>
      <trkpt lat="44.37666" lon="4.16273">
        <ele>154</ele>
        <time>2025-10-19T09:44:07.000Z</time>
      </trkpt>
      <trkpt lat="44.37682" lon="4.16273">
        <ele>155</ele>
        <time>2025-10-19T09:44:37.000Z</time>
      </trkpt>
      <trkpt lat="44.37704" lon="4.16286">
        <ele>157</ele>
        <time>2025-10-19T09:45:24.000Z</time>
      </trkpt>
      <trkpt lat="44.37739" lon="4.16258">
        <ele>164</ele>
        <time>2025-10-19T09:47:22.000Z</time>
      </trkpt>
      <trkpt lat="44.37774" lon="4.1632">
        <ele>171</ele>
        <time>2025-10-19T09:49:39.000Z</time>
      </trkpt>
      <trkpt lat="44.37793" lon="4.1634">
        <ele>173</ele>
        <time>2025-10-19T09:50:26.000Z</time>
      </trkpt>
      <trkpt lat="44.37857" lon="4.16376">
        <ele>181</ele>
        <time>2025-10-19T09:53:08.000Z</time>
      </trkpt>
      <trkpt lat="44.37886" lon="4.16387">
        <ele>182</ele>
        <time>2025-10-19T09:53:53.000Z</time>
      </trkpt>
      <trkpt lat="44.37991" lon="4.16383">
        <ele>190</ele>
        <time>2025-10-19T09:57:15.000Z</time>
      </trkpt>
      <trkpt lat="44.38009" lon="4.16346">
        <ele>188</ele>
        <time>2025-10-19T09:57:51.000Z</time>
      </trkpt>
      <trkpt lat="44.3802" lon="4.16323">
        <ele>186</ele>
        <time>2025-10-19T09:58:14.000Z</time>
      </trkpt>
      <trkpt lat="44.38029" lon="4.16297">
        <ele>182</ele>
        <time>2025-10-19T09:58:38.000Z</time>
      </trkpt>
      <trkpt lat="44.38029" lon="4.16254">
        <ele>174</ele>
        <time>2025-10-19T09:59:13.000Z</time>
      </trkpt>
      <trkpt lat="44.38067" lon="4.16204">
        <ele>173</ele>
        <time>2025-10-19T10:00:13.000Z</time>
      </trkpt>
      <trkpt lat="44.3811" lon="4.16142">
        <ele>174</ele>
        <time>2025-10-19T10:01:34.000Z</time>
      </trkpt>
      <trkpt lat="44.38153" lon="4.16084">
        <ele>172</ele>
        <time>2025-10-19T10:02:42.000Z</time>
      </trkpt>
      <trkpt lat="44.38192" lon="4.16035">
        <ele>168</ele>
        <time>2025-10-19T10:03:42.000Z</time>
      </trkpt>
      <trkpt lat="44.38227" lon="4.16009">
        <ele>166</ele>
        <time>2025-10-19T10:04:28.000Z</time>
      </trkpt>
      <trkpt lat="44.38248" lon="4.1599">
        <ele>164</ele>
        <time>2025-10-19T10:04:57.000Z</time>
      </trkpt>
      <trkpt lat="44.38279" lon="4.15994">
        <ele>168</ele>
        <time>2025-10-19T10:06:13.000Z</time>
      </trkpt>
      <trkpt lat="44.38307" lon="4.16016">
        <ele>169</ele>
        <time>2025-10-19T10:06:59.000Z</time>
      </trkpt>
      <trkpt lat="44.3832" lon="4.16026">
        <ele>170</ele>
        <time>2025-10-19T10:07:27.000Z</time>
      </trkpt>
      <trkpt lat="44.38373" lon="4.16024">
        <ele>167</ele>
        <time>2025-10-19T10:08:27.000Z</time>
      </trkpt>
      <trkpt lat="44.38386" lon="4.1602">
        <ele>166</ele>
        <time>2025-10-19T10:08:43.000Z</time>
      </trkpt>
      <trkpt lat="44.38406" lon="4.15983">
        <ele>162</ele>
        <time>2025-10-19T10:09:21.000Z</time>
      </trkpt>
      <trkpt lat="44.38414" lon="4.15971">
        <ele>162</ele>
        <time>2025-10-19T10:09:35.000Z</time>
      </trkpt>
      <trkpt lat="44.38449" lon="4.15953">
        <ele>163</ele>
        <time>2025-10-19T10:10:28.000Z</time>
      </trkpt>
      <trkpt lat="44.38503" lon="4.15943">
        <ele>163</ele>
        <time>2025-10-19T10:11:30.000Z</time>
      </trkpt>
      <trkpt lat="44.38532" lon="4.15947">
        <ele>164</ele>
        <time>2025-10-19T10:12:14.000Z</time>
      </trkpt>
      <trkpt lat="44.38555" lon="4.15958">
        <ele>164</ele>
        <time>2025-10-19T10:12:42.000Z</time>
      </trkpt>
      <trkpt lat="44.3858" lon="4.15988">
        <ele>165</ele>
        <time>2025-10-19T10:13:30.000Z</time>
      </trkpt>
      <trkpt lat="44.38607" lon="4.16018">
        <ele>166</ele>
        <time>2025-10-19T10:14:20.000Z</time>
      </trkpt>
      <trkpt lat="44.38639" lon="4.16022">
        <ele>166</ele>
        <time>2025-10-19T10:14:57.000Z</time>
      </trkpt>
      <trkpt lat="44.38673" lon="4.16011">
        <ele>165</ele>
        <time>2025-10-19T10:15:37.000Z</time>
      </trkpt>
      <trkpt lat="44.38699" lon="4.15994">
        <ele>166</ele>
        <time>2025-10-19T10:16:20.000Z</time>
      </trkpt>
      <trkpt lat="44.38727" lon="4.1596">
        <ele>168</ele>
        <time>2025-10-19T10:17:23.000Z</time>
      </trkpt>
      <trkpt lat="44.38739" lon="4.15926">
        <ele>168</ele>
        <time>2025-10-19T10:17:54.000Z</time>
      </trkpt>
      <trkpt lat="44.38744" lon="4.159">
        <ele>169</ele>
        <time>2025-10-19T10:18:26.000Z</time>
      </trkpt>
      <trkpt lat="44.38744" lon="4.15885">
        <ele>169</ele>
        <time>2025-10-19T10:18:38.000Z</time>
      </trkpt>
      <trkpt lat="44.38719" lon="4.15868">
        <ele>170</ele>
        <time>2025-10-19T10:19:20.000Z</time>
      </trkpt>
      <trkpt lat="44.38678" lon="4.15846">
        <ele>169</ele>
        <time>2025-10-19T10:20:11.000Z</time>
      </trkpt>
      <trkpt lat="44.3865" lon="4.15803">
        <ele>170</ele>
        <time>2025-10-19T10:21:09.000Z</time>
      </trkpt>
      <trkpt lat="44.38627" lon="4.15769">
        <ele>171</ele>
        <time>2025-10-19T10:21:58.000Z</time>
      </trkpt>
      <trkpt lat="44.38618" lon="4.15726">
        <ele>170</ele>
        <time>2025-10-19T10:22:35.000Z</time>
      </trkpt>
      <trkpt lat="44.38618" lon="4.15717">
        <ele>169</ele>
        <time>2025-10-19T10:22:42.000Z</time>
      </trkpt>
      <trkpt lat="44.38629" lon="4.15653">
        <ele>170</ele>
        <time>2025-10-19T10:23:46.000Z</time>
      </trkpt>
      <trkpt lat="44.38658" lon="4.15565">
        <ele>171</ele>
        <time>2025-10-19T10:25:16.000Z</time>
      </trkpt>
      <trkpt lat="44.38667" lon="4.15533">
        <ele>172</ele>
        <time>2025-10-19T10:25:55.000Z</time>
      </trkpt>
      <trkpt lat="44.3869" lon="4.15479">
        <ele>174</ele>
        <time>2025-10-19T10:27:07.000Z</time>
      </trkpt>
      <trkpt lat="44.38721" lon="4.15419">
        <ele>178</ele>
        <time>2025-10-19T10:28:49.000Z</time>
      </trkpt>
      <trkpt lat="44.38748" lon="4.15363">
        <ele>178</ele>
        <time>2025-10-19T10:29:45.000Z</time>
      </trkpt>
      <trkpt lat="44.38771" lon="4.15323">
        <ele>178</ele>
        <time>2025-10-19T10:30:28.000Z</time>
      </trkpt>
      <trkpt lat="44.38791" lon="4.15293">
        <ele>178</ele>
        <time>2025-10-19T10:31:01.000Z</time>
      </trkpt>
      <trkpt lat="44.3882" lon="4.15263">
        <ele>176</ele>
        <time>2025-10-19T10:31:42.000Z</time>
      </trkpt>
      <trkpt lat="44.3884" lon="4.15243">
        <ele>177</ele>
        <time>2025-10-19T10:32:20.000Z</time>
      </trkpt>
      <trkpt lat="44.38846" lon="4.15196">
        <ele>182</ele>
        <time>2025-10-19T10:33:51.000Z</time>
      </trkpt>
      <trkpt lat="44.38828" lon="4.15177">
        <ele>177</ele>
        <time>2025-10-19T10:34:17.000Z</time>
      </trkpt>
      <trkpt lat="44.38814" lon="4.15166">
        <ele>181</ele>
        <time>2025-10-19T10:35:16.000Z</time>
      </trkpt>
      <trkpt lat="44.38797" lon="4.15168">
        <ele>185</ele>
        <time>2025-10-19T10:36:17.000Z</time>
      </trkpt>
      <trkpt lat="44.38788" lon="4.15162">
        <ele>187</ele>
        <time>2025-10-19T10:36:49.000Z</time>
      </trkpt>
      <trkpt lat="44.38782" lon="4.1514">
        <ele>184</ele>
        <time>2025-10-19T10:37:08.000Z</time>
      </trkpt>
      <trkpt lat="44.38774" lon="4.15123">
        <ele>180</ele>
        <time>2025-10-19T10:37:25.000Z</time>
      </trkpt>
      <trkpt lat="44.38744" lon="4.15119">
        <ele>187</ele>
        <time>2025-10-19T10:39:12.000Z</time>
      </trkpt>
      <trkpt lat="44.38719" lon="4.15095">
        <ele>181</ele>
        <time>2025-10-19T10:39:46.000Z</time>
      </trkpt>
      <trkpt lat="44.38696" lon="4.15059">
        <ele>183</ele>
        <time>2025-10-19T10:40:46.000Z</time>
      </trkpt>
      <trkpt lat="44.3869" lon="4.15026">
        <ele>191</ele>
        <time>2025-10-19T10:42:36.000Z</time>
      </trkpt>
      <trkpt lat="44.38695" lon="4.14975">
        <ele>199</ele>
        <time>2025-10-19T10:44:41.000Z</time>
      </trkpt>
      <trkpt lat="44.38714" lon="4.1493">
        <ele>192</ele>
        <time>2025-10-19T10:45:24.000Z</time>
      </trkpt>
      <trkpt lat="44.38765" lon="4.14891">
        <ele>187</ele>
        <time>2025-10-19T10:46:30.000Z</time>
      </trkpt>
      <trkpt lat="44.38813" lon="4.14853">
        <ele>189</ele>
        <time>2025-10-19T10:47:54.000Z</time>
      </trkpt>
      <trkpt lat="44.38851" lon="4.14827">
        <ele>188</ele>
        <time>2025-10-19T10:48:43.000Z</time>
      </trkpt>
      <trkpt lat="44.3884" lon="4.14795">
        <ele>198</ele>
        <time>2025-10-19T10:50:55.000Z</time>
      </trkpt>
      <trkpt lat="44.38842" lon="4.1478">
        <ele>194</ele>
        <time>2025-10-19T10:51:07.000Z</time>
      </trkpt>
      <trkpt lat="44.38825" lon="4.14752">
        <ele>188</ele>
        <time>2025-10-19T10:51:37.000Z</time>
      </trkpt>
      <trkpt lat="44.38822" lon="4.14737">
        <ele>188</ele>
        <time>2025-10-19T10:51:50.000Z</time>
      </trkpt>
      <trkpt lat="44.38836" lon="4.1467">
        <ele>193</ele>
        <time>2025-10-19T10:53:38.000Z</time>
      </trkpt>
      <trkpt lat="44.3884" lon="4.14593">
        <ele>214</ele>
        <time>2025-10-19T10:58:17.000Z</time>
      </trkpt>
      <trkpt lat="44.38846" lon="4.14546">
        <ele>215</ele>
        <time>2025-10-19T10:59:07.000Z</time>
      </trkpt>
      <trkpt lat="44.38846" lon="4.14509">
        <ele>203</ele>
        <time>2025-10-19T10:59:37.000Z</time>
      </trkpt>
      <trkpt lat="44.38825" lon="4.14488">
        <ele>198</ele>
        <time>2025-10-19T11:00:07.000Z</time>
      </trkpt>
      <trkpt lat="44.38806" lon="4.14475">
        <ele>192</ele>
        <time>2025-10-19T11:00:31.000Z</time>
      </trkpt>
      <trkpt lat="44.38776" lon="4.14479">
        <ele>196</ele>
        <time>2025-10-19T11:01:47.000Z</time>
      </trkpt>
      <trkpt lat="44.38753" lon="4.14484">
        <ele>201</ele>
        <time>2025-10-19T11:03:05.000Z</time>
      </trkpt>
      <trkpt lat="44.38722" lon="4.14486">
        <ele>194</ele>
        <time>2025-10-19T11:03:40.000Z</time>
      </trkpt>
      <trkpt lat="44.38705" lon="4.14488">
        <ele>199</ele>
        <time>2025-10-19T11:04:51.000Z</time>
      </trkpt>
      <trkpt lat="44.38714" lon="4.14439">
        <ele>209</ele>
        <time>2025-10-19T11:07:16.000Z</time>
      </trkpt>
      <trkpt lat="44.38736" lon="4.14391">
        <ele>223</ele>
        <time>2025-10-19T11:10:26.000Z</time>
      </trkpt>
      <trkpt lat="44.3877" lon="4.14336">
        <ele>239</ele>
        <time>2025-10-19T11:14:10.000Z</time>
      </trkpt>
      <trkpt lat="44.38805" lon="4.14288">
        <ele>250</ele>
        <time>2025-10-19T11:16:59.000Z</time>
      </trkpt>
      <trkpt lat="44.38828" lon="4.14271">
        <ele>254</ele>
        <time>2025-10-19T11:18:10.000Z</time>
      </trkpt>
      <trkpt lat="44.38857" lon="4.14265">
        <ele>258</ele>
        <time>2025-10-19T11:19:25.000Z</time>
      </trkpt>
      <trkpt lat="44.38882" lon="4.14258">
        <ele>263</ele>
        <time>2025-10-19T11:20:45.000Z</time>
      </trkpt>
      <trkpt lat="44.38929" lon="4.14235">
        <ele>268</ele>
        <time>2025-10-19T11:22:34.000Z</time>
      </trkpt>
      <trkpt lat="44.38949" lon="4.14218">
        <ele>270</ele>
        <time>2025-10-19T11:23:21.000Z</time>
      </trkpt>
      <trkpt lat="44.3901" lon="4.1419">
        <ele>274</ele>
        <time>2025-10-19T11:25:16.000Z</time>
      </trkpt>
      <trkpt lat="44.3905" lon="4.14132">
        <ele>277</ele>
        <time>2025-10-19T11:26:53.000Z</time>
      </trkpt>
      <trkpt lat="44.39072" lon="4.14104">
        <ele>280</ele>
        <time>2025-10-19T11:27:57.000Z</time>
      </trkpt>
      <trkpt lat="44.39115" lon="4.14097">
        <ele>284</ele>
        <time>2025-10-19T11:29:28.000Z</time>
      </trkpt>
      <trkpt lat="44.39141" lon="4.1408">
        <ele>285</ele>
        <time>2025-10-19T11:30:11.000Z</time>
      </trkpt>
      <trkpt lat="44.39182" lon="4.14042">
        <ele>284</ele>
        <time>2025-10-19T11:31:08.000Z</time>
      </trkpt>
      <trkpt lat="44.39194" lon="4.14138">
        <ele>282</ele>
        <time>2025-10-19T11:32:28.000Z</time>
      </trkpt>
      <trkpt lat="44.39208" lon="4.14233">
        <ele>280</ele>
        <time>2025-10-19T11:33:47.000Z</time>
      </trkpt>
      <trkpt lat="44.39211" lon="4.14303">
        <ele>278</ele>
        <time>2025-10-19T11:34:45.000Z</time>
      </trkpt>
      <trkpt lat="44.39194" lon="4.144">
        <ele>276</ele>
        <time>2025-10-19T11:36:06.000Z</time>
      </trkpt>
      <trkpt lat="44.39187" lon="4.14462">
        <ele>274</ele>
        <time>2025-10-19T11:36:58.000Z</time>
      </trkpt>
      <trkpt lat="44.39176" lon="4.14524">
        <ele>271</ele>
        <time>2025-10-19T11:37:50.000Z</time>
      </trkpt>
      <trkpt lat="44.39191" lon="4.14578">
        <ele>271</ele>
        <time>2025-10-19T11:38:37.000Z</time>
      </trkpt>
      <trkpt lat="44.39228" lon="4.14614">
        <ele>272</ele>
        <time>2025-10-19T11:39:39.000Z</time>
      </trkpt>
      <trkpt lat="44.39265" lon="4.14649">
        <ele>274</ele>
        <time>2025-10-19T11:40:50.000Z</time>
      </trkpt>
      <trkpt lat="44.39289" lon="4.147">
        <ele>275</ele>
        <time>2025-10-19T11:41:51.000Z</time>
      </trkpt>
      <trkpt lat="44.39309" lon="4.14782">
        <ele>274</ele>
        <time>2025-10-19T11:43:01.000Z</time>
      </trkpt>
      <trkpt lat="44.39308" lon="4.14881">
        <ele>273</ele>
        <time>2025-10-19T11:44:22.000Z</time>
      </trkpt>
      <trkpt lat="44.39289" lon="4.14934">
        <ele>272</ele>
        <time>2025-10-19T11:45:11.000Z</time>
      </trkpt>
      <trkpt lat="44.39254" lon="4.14977">
        <ele>271</ele>
        <time>2025-10-19T11:46:04.000Z</time>
      </trkpt>
      <trkpt lat="44.39247" lon="4.14992">
        <ele>271</ele>
        <time>2025-10-19T11:46:19.000Z</time>
      </trkpt>
      <trkpt lat="44.39236" lon="4.15035">
        <ele>271</ele>
        <time>2025-10-19T11:46:56.000Z</time>
      </trkpt>
      <trkpt lat="44.39225" lon="4.15067">
        <ele>272</ele>
        <time>2025-10-19T11:47:35.000Z</time>
      </trkpt>
      <trkpt lat="44.39207" lon="4.15119">
        <ele>272</ele>
        <time>2025-10-19T11:48:22.000Z</time>
      </trkpt>
      <trkpt lat="44.39204" lon="4.15187">
        <ele>269</ele>
        <time>2025-10-19T11:49:18.000Z</time>
      </trkpt>
      <trkpt lat="44.39207" lon="4.15301">
        <ele>267</ele>
        <time>2025-10-19T11:50:51.000Z</time>
      </trkpt>
      <trkpt lat="44.39214" lon="4.154">
        <ele>264</ele>
        <time>2025-10-19T11:52:12.000Z</time>
      </trkpt>
      <trkpt lat="44.39214" lon="4.15507">
        <ele>263</ele>
        <time>2025-10-19T11:53:40.000Z</time>
      </trkpt>
      <trkpt lat="44.39219" lon="4.1558">
        <ele>262</ele>
        <time>2025-10-19T11:54:40.000Z</time>
      </trkpt>
      <trkpt lat="44.39219" lon="4.15602">
        <ele>262</ele>
        <time>2025-10-19T11:54:58.000Z</time>
      </trkpt>
      <trkpt lat="44.39207" lon="4.15623">
        <ele>261</ele>
        <time>2025-10-19T11:55:20.000Z</time>
      </trkpt>
      <trkpt lat="44.39191" lon="4.15668">
        <ele>259</ele>
        <time>2025-10-19T11:56:01.000Z</time>
      </trkpt>
      <trkpt lat="44.39156" lon="4.15698">
        <ele>255</ele>
        <time>2025-10-19T11:56:48.000Z</time>
      </trkpt>
      <trkpt lat="44.39132" lon="4.15737">
        <ele>252</ele>
        <time>2025-10-19T11:57:30.000Z</time>
      </trkpt>
      <trkpt lat="44.39109" lon="4.15782">
        <ele>247</ele>
        <time>2025-10-19T11:58:15.000Z</time>
      </trkpt>
      <trkpt lat="44.39093" lon="4.15818">
        <ele>245</ele>
        <time>2025-10-19T11:58:50.000Z</time>
      </trkpt>
      <trkpt lat="44.39026" lon="4.15868">
        <ele>243</ele>
        <time>2025-10-19T12:00:17.000Z</time>
      </trkpt>
      <trkpt lat="44.38964" lon="4.159">
        <ele>238</ele>
        <time>2025-10-19T12:01:32.000Z</time>
      </trkpt>
      <trkpt lat="44.38902" lon="4.15938">
        <ele>233</ele>
        <time>2025-10-19T12:02:51.000Z</time>
      </trkpt>
      <trkpt lat="44.38874" lon="4.15966">
        <ele>232</ele>
        <time>2025-10-19T12:03:30.000Z</time>
      </trkpt>
      <trkpt lat="44.38854" lon="4.16022">
        <ele>228</ele>
        <time>2025-10-19T12:04:21.000Z</time>
      </trkpt>
      <trkpt lat="44.38839" lon="4.16071">
        <ele>225</ele>
        <time>2025-10-19T12:05:05.000Z</time>
      </trkpt>
      <trkpt lat="44.38825" lon="4.16114">
        <ele>225</ele>
        <time>2025-10-19T12:05:43.000Z</time>
      </trkpt>
      <trkpt lat="44.38819" lon="4.16144">
        <ele>222</ele>
        <time>2025-10-19T12:06:09.000Z</time>
      </trkpt>
      <trkpt lat="44.38806" lon="4.16142">
        <ele>222</ele>
        <time>2025-10-19T12:06:23.000Z</time>
      </trkpt>
      <trkpt lat="44.38787" lon="4.16138">
        <ele>220</ele>
        <time>2025-10-19T12:06:46.000Z</time>
      </trkpt>
      <trkpt lat="44.3876" lon="4.16127">
        <ele>217</ele>
        <time>2025-10-19T12:07:17.000Z</time>
      </trkpt>
      <trkpt lat="44.38733" lon="4.16132">
        <ele>214</ele>
        <time>2025-10-19T12:07:49.000Z</time>
      </trkpt>
      <trkpt lat="44.38716" lon="4.16168">
        <ele>212</ele>
        <time>2025-10-19T12:08:25.000Z</time>
      </trkpt>
      <trkpt lat="44.38713" lon="4.16209">
        <ele>211</ele>
        <time>2025-10-19T12:08:58.000Z</time>
      </trkpt>
      <trkpt lat="44.38708" lon="4.16232">
        <ele>211</ele>
        <time>2025-10-19T12:09:18.000Z</time>
      </trkpt>
      <trkpt lat="44.38672" lon="4.16247">
        <ele>208</ele>
        <time>2025-10-19T12:10:02.000Z</time>
      </trkpt>
      <trkpt lat="44.38621" lon="4.16258">
        <ele>207</ele>
        <time>2025-10-19T12:11:01.000Z</time>
      </trkpt>
      <trkpt lat="44.38601" lon="4.16262">
        <ele>206</ele>
        <time>2025-10-19T12:11:24.000Z</time>
      </trkpt>
      <trkpt lat="44.38581" lon="4.16295">
        <ele>204</ele>
        <time>2025-10-19T12:11:59.000Z</time>
      </trkpt>
      <trkpt lat="44.38576" lon="4.16303">
        <ele>203</ele>
        <time>2025-10-19T12:12:08.000Z</time>
      </trkpt>
      <trkpt lat="44.38553" lon="4.1632">
        <ele>202</ele>
        <time>2025-10-19T12:12:38.000Z</time>
      </trkpt>
      <trkpt lat="44.38507" lon="4.16368">
        <ele>202</ele>
        <time>2025-10-19T12:13:43.000Z</time>
      </trkpt>
      <trkpt lat="44.38478" lon="4.16395">
        <ele>204</ele>
        <time>2025-10-19T12:14:44.000Z</time>
      </trkpt>
      <trkpt lat="44.38448" lon="4.16415">
        <ele>206</ele>
        <time>2025-10-19T12:15:43.000Z</time>
      </trkpt>
      <trkpt lat="44.38423" lon="4.16438">
        <ele>207</ele>
        <time>2025-10-19T12:16:27.000Z</time>
      </trkpt>
      <trkpt lat="44.38422" lon="4.1646">
        <ele>207</ele>
        <time>2025-10-19T12:16:45.000Z</time>
      </trkpt>
      <trkpt lat="44.38368" lon="4.16451">
        <ele>205</ele>
        <time>2025-10-19T12:17:47.000Z</time>
      </trkpt>
      <trkpt lat="44.38339" lon="4.1643">
        <ele>201</ele>
        <time>2025-10-19T12:18:25.000Z</time>
      </trkpt>
      <trkpt lat="44.38328" lon="4.16421">
        <ele>200</ele>
        <time>2025-10-19T12:18:39.000Z</time>
      </trkpt>
      <trkpt lat="44.38258" lon="4.16419">
        <ele>197</ele>
        <time>2025-10-19T12:20:00.000Z</time>
      </trkpt>
      <trkpt lat="44.38201" lon="4.16421">
        <ele>198</ele>
        <time>2025-10-19T12:21:15.000Z</time>
      </trkpt>
      <trkpt lat="44.38141" lon="4.16423">
        <ele>195</ele>
        <time>2025-10-19T12:22:23.000Z</time>
      </trkpt>
      <trkpt lat="44.38104" lon="4.16421">
        <ele>192</ele>
        <time>2025-10-19T12:23:05.000Z</time>
      </trkpt>
      <trkpt lat="44.38066" lon="4.16432">
        <ele>192</ele>
        <time>2025-10-19T12:23:50.000Z</time>
      </trkpt>
      <trkpt lat="44.38037" lon="4.16423">
        <ele>193</ele>
        <time>2025-10-19T12:24:34.000Z</time>
      </trkpt>
      <trkpt lat="44.38015" lon="4.16417">
        <ele>193</ele>
        <time>2025-10-19T12:24:59.000Z</time>
      </trkpt>
      <trkpt lat="44.37995" lon="4.1638">
        <ele>190</ele>
        <time>2025-10-19T12:25:37.000Z</time>
      </trkpt>
      <trkpt lat="44.37945" lon="4.16378">
        <ele>185</ele>
        <time>2025-10-19T12:26:35.000Z</time>
      </trkpt>
      <trkpt lat="44.379" lon="4.16385">
        <ele>183</ele>
        <time>2025-10-19T12:27:26.000Z</time>
      </trkpt>
      <trkpt lat="44.37853" lon="4.16374">
        <ele>180</ele>
        <time>2025-10-19T12:28:21.000Z</time>
      </trkpt>
      <trkpt lat="44.37813" lon="4.16355">
        <ele>176</ele>
        <time>2025-10-19T12:29:09.000Z</time>
      </trkpt>
      <trkpt lat="44.37784" lon="4.16331">
        <ele>173</ele>
        <time>2025-10-19T12:29:48.000Z</time>
      </trkpt>
      <trkpt lat="44.37777" lon="4.16323">
        <ele>171</ele>
        <time>2025-10-19T12:29:58.000Z</time>
      </trkpt>
      <trkpt lat="44.37745" lon="4.16262">
        <ele>164</ele>
        <time>2025-10-19T12:30:59.000Z</time>
      </trkpt>
      <trkpt lat="44.37712" lon="4.1628">
        <ele>157</ele>
        <time>2025-10-19T12:31:40.000Z</time>
      </trkpt>
      <trkpt lat="44.3769" lon="4.16271">
        <ele>155</ele>
        <time>2025-10-19T12:32:06.000Z</time>
      </trkpt>
      <trkpt lat="44.37653" lon="4.16265">
        <ele>154</ele>
        <time>2025-10-19T12:32:48.000Z</time>
      </trkpt>
      <trkpt lat="44.37624" lon="4.16265">
        <ele>152</ele>
        <time>2025-10-19T12:33:21.000Z</time>
      </trkpt>
      <trkpt lat="44.37603" lon="4.16277">
        <ele>151</ele>
        <time>2025-10-19T12:33:48.000Z</time>
      </trkpt>
      <trkpt lat="44.37566" lon="4.16262">
        <ele>151</ele>
        <time>2025-10-19T12:34:32.000Z</time>
      </trkpt>
      <trkpt lat="44.37518" lon="4.16237">
        <ele>153</ele>
        <time>2025-10-19T12:35:51.000Z</time>
      </trkpt>
      <trkpt lat="44.3748" lon="4.16217">
        <ele>153</ele>
        <time>2025-10-19T12:36:38.000Z</time>
      </trkpt>
      <trkpt lat="44.37452" lon="4.16189">
        <ele>154</ele>
        <time>2025-10-19T12:37:27.000Z</time>
      </trkpt>
      <trkpt lat="44.37425" lon="4.16155">
        <ele>154</ele>
        <time>2025-10-19T12:38:09.000Z</time>
      </trkpt>
      <trkpt lat="44.37376" lon="4.16129">
        <ele>157</ele>
        <time>2025-10-19T12:39:40.000Z</time>
      </trkpt>
      <trkpt lat="44.37336" lon="4.16117">
        <ele>160</ele>
        <time>2025-10-19T12:40:58.000Z</time>
      </trkpt>
      <trkpt lat="44.37274" lon="4.16101">
        <ele>164</ele>
        <time>2025-10-19T12:42:50.000Z</time>
      </trkpt>
      <trkpt lat="44.37268" lon="4.16683">
        <ele>149</ele>
        <time>2025-10-19T12:50:46.000Z</time>
        <extensions>
          <visugpx:TrkExtension xmlns:visugpx="https://www.visugpx.com/editgpx/">
            <visugpx:node>1</visugpx:node>
            </visugpx:TrkExtension>
        </extensions>
      </trkpt>
    </trkseg>
  </trk>
</gpx>